Inglis, Florida
Current Conditions -  °F | °C
As of 7:15 PM on Friday 21 Nov 2014 (Local Time) from KCGC Reporting Station
Broken Clouds Broken Clouds  
Wind Chill: 17°   Ceiling: 9000
Heat Index: 17°   Visibility: 10mi
Dew Point:   Wind: 7mph
Humidity: 55%   Direction: 60°ENE
Pressure: 30.3"   Gusts: NA
Location:  29.03°N, 82.67°W
Report Text: KCGC 220015Z AUTO 06006KT 10SM BKN090 17/08 A3030 RMK AO2
Loading
Personal Weather Stations






























Interactive Weather Map New forecast layout! Learn more

10-Day Weather Forecast

Advertisements
Track Severe Weather on mobile